Time;durP1;ratioP1;P1;durP2;ratioP2;P2;SDS_P1;SDS_P2;PMS_P1;PMS_P2;Temp;Humidity;BMP_temperature;BMP_pressure;BME280_temperature;BME280_humidity;BME280_pressure;Samples;Min_cycle;Max_cycle;Signal;HPM_P1;HPM_P2
2021/12/15 00:02:19;;;;;;;50.57;27.63;;;9.40;99.90;;;;;;5071374;28;20514;-83
2021/12/15 00:04:46;;;;;;;54.83;29.23;;;9.40;99.90;;;;;;5071628;28;20861;-83
2021/12/15 00:07:13;;;;;;;56.03;29.50;;;9.40;99.90;;;;;;5071820;28;20490;-83
2021/12/15 00:09:40;;;;;;;51.03;26.70;;;9.40;99.90;;;;;;5071250;28;20539;-83
2021/12/15 00:12:13;;;;;;;54.07;30.07;;;9.50;99.90;;;;;;5071791;28;20444;-83
2021/12/15 00:14:40;;;;;;;58.70;28.43;;;9.50;99.90;;;;;;5071456;28;20443;-83
2021/12/15 00:17:07;;;;;;;57.10;29.50;;;9.40;99.90;;;;;;5071720;28;20496;-83
2021/12/15 00:19:33;;;;;;;52.63;28.43;;;9.40;99.90;;;;;;5071087;28;20483;-82
2021/12/15 00:22:00;;;;;;;55.17;27.33;;;9.40;99.90;;;;;;5071001;28;20550;-82
2021/12/15 00:24:27;;;;;;;57.90;30.20;;;9.40;99.90;;;;;;5071579;28;20453;-82
2021/12/15 00:26:55;;;;;;;51.60;27.57;;;9.40;99.90;;;;;;5070737;28;20966;-82
2021/12/15 00:29:23;;;;;;;51.37;26.83;;;9.40;99.90;;;;;;5071426;28;20900;-84
2021/12/15 00:31:51;;;;;;;54.13;28.83;;;9.40;99.90;;;;;;5071552;28;20543;-83
2021/12/15 00:34:19;;;;;;;50.03;27.57;;;9.40;99.90;;;;;;5071600;28;20842;-83
2021/12/15 00:36:47;;;;;;;59.87;32.20;;;9.40;99.90;;;;;;5071259;28;20452;-83
2021/12/15 00:39:17;;;;;;;56.57;29.13;;;9.40;99.90;;;;;;5069676;28;20475;-83
2021/12/15 00:41:43;;;;;;;54.87;29.47;;;9.40;99.90;;;;;;5071065;28;20540;-82
2021/12/15 00:44:11;;;;;;;49.03;28.30;;;9.40;99.90;;;;;;5062230;28;20486;-83
2021/12/15 00:46:39;;;;;;;52.20;28.03;;;9.40;99.90;;;;;;5064882;28;20513;-82
2021/12/15 00:49:08;;;;;;;51.57;27.40;;;9.50;99.90;;;;;;5063292;28;20443;-82
2021/12/15 00:51:35;;;;;;;48.67;27.30;;;9.40;99.90;;;;;;5070514;28;20487;-83
2021/12/15 00:54:03;;;;;;;55.10;29.40;;;9.40;99.90;;;;;;5069812;28;20494;-83
2021/12/15 00:56:29;;;;;;;49.07;27.27;;;9.50;99.90;;;;;;5071282;28;21006;-82
2021/12/15 00:58:56;;;;;;;53.47;28.00;;;9.50;99.90;;;;;;5071012;28;20483;-82
2021/12/15 01:01:24;;;;;;;47.37;25.80;;;9.50;99.90;;;;;;5071749;28;21006;-84
2021/12/15 01:03:52;;;;;;;48.80;26.57;;;9.40;99.90;;;;;;5074267;28;20470;-83
2021/12/15 01:06:20;;;;;;;52.90;27.90;;;9.40;99.90;;;;;;5074475;28;20872;-83
2021/12/15 01:08:55;;;;;;;50.33;27.97;;;9.40;99.90;;;;;;5074419;28;20811;-83
2021/12/15 01:11:31;;;;;;;43.90;25.43;;;9.40;99.90;;;;;;5074413;28;20443;-82
2021/12/15 01:19:49;;;;;;;62.93;27.73;;;9.50;99.90;;;;;;5074176;28;20576;-82
2021/12/15 01:22:22;;;;;;;42.20;25.07;;;9.40;99.90;;;;;;5059396;28;20471;-82
2021/12/15 01:24:50;;;;;;;46.40;26.27;;;9.40;99.90;;;;;;5073830;28;20466;-82
2021/12/15 01:27:17;;;;;;;46.80;26.77;;;9.40;99.90;;;;;;5073866;28;20495;-82
2021/12/15 01:29:43;;;;;;;44.70;25.03;;;9.40;99.90;;;;;;5073970;28;20451;-82
2021/12/15 01:32:10;;;;;;;47.60;25.97;;;9.40;99.90;;;;;;5074144;28;20535;-83
2021/12/15 01:34:38;;;;;;;48.50;27.03;;;9.40;99.90;;;;;;5073999;28;20478;-83
2021/12/15 01:37:05;;;;;;;44.93;26.17;;;9.40;99.90;;;;;;5073456;28;20482;-83
2021/12/15 01:39:31;;;;;;;47.60;26.43;;;9.40;99.90;;;;;;5073380;28;20503;-83
2021/12/15 01:41:58;;;;;;;48.03;26.97;;;9.40;99.90;;;;;;5073544;28;20535;-82
2021/12/15 01:47:09;;;;;;;50.40;26.37;;;9.40;99.90;;;;;;5073077;28;20447;-83
2021/12/15 01:49:40;;;;;;;45.53;24.17;;;9.40;99.90;;;;;;5073822;28;20479;-83
2021/12/15 01:52:14;;;;;;;44.93;26.93;;;9.40;99.90;;;;;;5072885;28;20443;-82
2021/12/15 01:54:43;;;;;;;45.90;25.10;;;9.40;99.90;;;;;;5073487;28;20564;-83
2021/12/15 01:57:11;;;;;;;43.60;25.30;;;9.40;99.90;;;;;;5073719;28;20860;-83
2021/12/15 01:59:38;;;;;;;49.03;26.23;;;9.30;99.90;;;;;;5073296;28;20480;-83
2021/12/15 02:02:06;;;;;;;46.50;24.97;;;9.30;99.90;;;;;;5073142;28;20472;-82
2021/12/15 02:04:33;;;;;;;47.90;26.30;;;9.40;99.90;;;;;;5073995;28;20472;-83
2021/12/15 02:07:01;;;;;;;47.33;27.07;;;9.40;99.90;;;;;;5073578;28;20448;-84
2021/12/15 02:09:48;;;;;;;50.30;26.23;;;9.40;99.90;;;;;;5073023;28;20542;-83
2021/12/15 02:12:18;;;;;;;42.87;23.20;;;9.40;99.90;;;;;;5073401;28;20440;-83
2021/12/15 02:14:44;;;;;;;45.97;25.37;;;9.40;99.90;;;;;;5071985;28;20450;-83
2021/12/15 02:17:11;;;;;;;52.37;25.43;;;9.40;99.90;;;;;;5073187;28;20531;-83
2021/12/15 02:19:38;;;;;;;42.40;24.73;;;9.40;99.90;;;;;;5073122;28;20497;-83
2021/12/15 02:22:06;;;;;;;44.67;25.37;;;9.40;99.90;;;;;;5073066;28;20471;-84
2021/12/15 02:24:35;;;;;;;45.30;22.33;;;9.40;99.90;;;;;;5073231;28;20448;-84
2021/12/15 02:27:02;;;;;;;47.00;26.03;;;9.40;99.90;;;;;;5072712;28;20443;-84
2021/12/15 02:29:33;;;;;;;49.27;24.97;;;9.40;99.90;;;;;;5073332;28;20530;-83
2021/12/15 02:32:11;;;;;;;49.83;23.33;;;9.40;99.90;;;;;;5072688;28;20513;-83
2021/12/15 02:37:04;;;;;;;49.73;23.80;;;9.40;99.90;;;;;;5072999;28;20529;-83
2021/12/15 02:37:44;;;;;;;46.20;26.37;;;9.40;99.90;;;;;;5072231;28;20447;-82
2021/12/15 02:40:16;;;;;;;42.47;24.70;;;9.40;99.90;;;;;;5072492;28;20533;-84
2021/12/15 02:42:46;;;;;;;49.10;25.17;;;9.40;99.90;;;;;;5072618;28;20488;-85
2021/12/15 02:45:16;;;;;;;51.20;24.97;;;9.40;99.90;;;;;;5072765;28;20451;-85
2021/12/15 02:47:43;;;;;;;44.10;24.83;;;9.40;99.90;;;;;;5072306;28;20451;-85
2021/12/15 02:50:14;;;;;;;45.63;25.00;;;9.40;99.90;;;;;;5071983;28;20448;-84
2021/12/15 02:52:41;;;;;;;38.87;21.57;;;9.40;99.90;;;;;;5072412;28;20443;-85
2021/12/15 02:55:10;;;;;;;47.63;24.10;;;9.40;99.90;;;;;;5072516;28;20530;-83
2021/12/15 02:57:37;;;;;;;45.60;24.30;;;9.40;99.90;;;;;;5071953;28;20521;-84
2021/12/15 03:00:16;;;;;;;44.47;24.07;;;9.40;99.90;;;;;;5072514;28;20454;-84
2021/12/15 03:05:33;;;;;;;48.73;24.13;;;9.40;99.90;;;;;;5064261;28;20501;-83
2021/12/15 03:08:07;;;;;;;49.23;23.53;;;9.40;99.90;;;;;;5072082;28;20454;-83
2021/12/15 03:16:05;;;;;;;43.30;23.47;;;9.40;99.90;;;;;;5070847;28;20426;-83
2021/12/15 03:18:32;;;;;;;43.80;22.93;;;9.40;99.90;;;;;;5072536;28;20463;-83
2021/12/15 03:21:01;;;;;;;41.30;21.67;;;9.40;99.90;;;;;;5072393;28;20514;-83
2021/12/15 03:23:32;;;;;;;46.83;23.53;;;9.40;99.90;;;;;;5072047;28;20471;-83
2021/12/15 03:26:01;;;;;;;40.07;22.67;;;9.40;99.90;;;;;;5071523;28;20451;-83
2021/12/15 03:34:12;;;;;;;38.93;22.40;;;9.40;99.90;;;;;;5071844;28;20451;-83
2021/12/15 03:37:19;;;;;;;39.50;22.30;;;9.40;99.90;;;;;;5071714;28;20483;-82
2021/12/15 03:39:46;;;;;;;36.00;21.43;;;9.40;99.90;;;;;;5069497;28;20998;-83
2021/12/15 03:42:17;;;;;;;47.27;22.83;;;9.40;99.90;;;;;;5071499;28;20477;-84
2021/12/15 03:44:47;;;;;;;41.00;23.77;;;9.30;99.90;;;;;;5071711;28;20487;-85
2021/12/15 03:47:17;;;;;;;40.00;22.70;;;9.30;99.90;;;;;;5070295;28;20534;-86
2021/12/15 03:49:43;;;;;;;46.03;23.00;;;9.40;99.90;;;;;;5071619;28;20534;-86
2021/12/15 03:52:13;;;;;;;46.63;24.87;;;9.30;99.90;;;;;;5071835;28;20876;-86
2021/12/15 03:54:40;;;;;;;43.87;22.20;;;9.30;99.90;;;;;;5071394;28;20487;-86
2021/12/15 03:57:07;;;;;;;42.13;22.53;;;9.30;99.90;;;;;;5071504;28;20513;-86
2021/12/15 03:59:40;;;;;;;44.67;23.20;;;9.40;99.90;;;;;;5072089;28;20799;-85
2021/12/15 04:02:07;;;;;;;37.77;21.90;;;9.40;99.90;;;;;;5071611;28;20511;-85
2021/12/15 04:04:34;;;;;;;37.07;22.40;;;9.40;99.90;;;;;;5071920;28;20574;-86
2021/12/15 04:07:00;;;;;;;40.43;22.37;;;9.40;99.90;;;;;;5071895;28;20886;-86
2021/12/15 04:09:27;;;;;;;37.07;20.67;;;9.40;99.90;;;;;;5071220;28;20538;-84
2021/12/15 04:11:54;;;;;;;39.30;21.60;;;9.40;99.90;;;;;;5071471;28;20444;-84
2021/12/15 04:14:28;;;;;;;38.20;22.13;;;9.40;99.90;;;;;;5071522;28;20449;-84
2021/12/15 04:17:02;;;;;;;34.83;20.43;;;9.40;99.90;;;;;;5071065;28;20454;-85
2021/12/15 04:19:30;;;;;;;41.40;21.33;;;9.40;99.90;;;;;;5071923;28;20451;-87
2021/12/15 04:21:57;;;;;;;35.60;21.80;;;9.40;99.90;;;;;;5071389;28;20467;-87
2021/12/15 04:24:26;;;;;;;43.20;22.30;;;9.40;99.90;;;;;;5071297;28;20487;-86
2021/12/15 04:26:54;;;;;;;32.97;20.03;;;9.40;99.90;;;;;;5071510;28;20931;-88
2021/12/15 04:29:21;;;;;;;36.43;20.87;;;9.40;99.90;;;;;;5071698;28;20537;-89
2021/12/15 04:32:00;;;;;;;35.80;20.17;;;9.40;99.90;;;;;;5071552;28;20585;-88
2021/12/15 04:34:27;;;;;;;33.40;19.80;;;9.40;99.90;;;;;;5058313;28;20870;-87
2021/12/15 04:36:54;;;;;;;38.43;20.30;;;9.40;99.90;;;;;;5073002;28;20491;-88
2021/12/15 04:39:26;;;;;;;33.43;19.67;;;9.40;99.90;;;;;;5075151;28;20520;-88
2021/12/15 04:41:54;;;;;;;34.67;20.30;;;9.40;99.90;;;;;;5075112;28;20475;-87
2021/12/15 04:44:24;;;;;;;39.43;19.53;;;9.40;99.90;;;;;;5075030;28;20571;-87
2021/12/15 04:46:59;;;;;;;32.50;19.90;;;9.30;99.90;;;;;;5074747;28;20989;-88
2021/12/15 04:49:30;;;;;;;32.60;19.27;;;9.40;99.90;;;;;;5075384;28;20447;-85
2021/12/15 04:51:58;;;;;;;31.90;19.47;;;9.30;99.90;;;;;;5075263;28;20496;-84
2021/12/15 04:54:25;;;;;;;36.70;19.27;;;9.40;99.90;;;;;;5074621;28;20440;-85
2021/12/15 04:56:53;;;;;;;31.07;20.30;;;9.40;99.90;;;;;;5075068;28;20450;-85
2021/12/15 04:59:20;;;;;;;36.57;19.40;;;9.30;99.90;;;;;;5074762;28;20497;-85
2021/12/15 05:01:47;;;;;;;34.10;19.43;;;9.30;99.90;;;;;;5074576;28;20545;-85
2021/12/15 05:04:15;;;;;;;31.10;16.83;;;9.30;99.90;;;;;;5059608;28;20514;-84
2021/12/15 05:06:44;;;;;;;32.30;18.90;;;9.30;99.90;;;;;;5074649;28;20867;-84
2021/12/15 05:09:11;;;;;;;35.20;18.90;;;9.40;99.90;;;;;;5074465;28;20918;-84
2021/12/15 05:11:38;;;;;;;29.73;18.47;;;9.40;99.90;;;;;;5074292;28;20479;-87
2021/12/15 05:14:05;;;;;;;33.27;19.33;;;9.40;99.90;;;;;;5074000;28;20447;-87
2021/12/15 05:16:32;;;;;;;35.27;18.47;;;9.40;99.90;;;;;;5074649;28;20475;-87
2021/12/15 05:18:58;;;;;;;31.70;19.40;;;9.40;99.90;;;;;;5074239;28;20443;-87
2021/12/15 05:21:25;;;;;;;31.63;18.97;;;9.40;99.90;;;;;;5074493;28;20566;-87
2021/12/15 05:23:57;;;;;;;36.30;18.23;;;9.40;99.90;;;;;;5073868;28;20562;-86
2021/12/15 05:26:24;;;;;;;29.63;17.30;;;9.40;99.90;;;;;;5074236;28;20500;-86
2021/12/15 05:28:52;;;;;;;32.50;18.53;;;9.40;99.90;;;;;;5073971;28;20481;-86
2021/12/15 05:31:18;;;;;;;31.00;19.63;;;9.40;99.90;;;;;;5074220;28;20462;-84
2021/12/15 05:33:45;;;;;;;29.70;17.07;;;9.40;99.90;;;;;;5071339;28;20451;-83
2021/12/15 05:36:12;;;;;;;30.63;18.57;;;9.40;99.90;;;;;;5073242;28;20490;-82
2021/12/15 05:38:38;;;;;;;29.57;18.90;;;9.40;99.90;;;;;;5073483;28;20874;-83
2021/12/15 05:41:07;;;;;;;30.80;19.43;;;9.40;99.90;;;;;;5073606;28;20535;-82
2021/12/15 05:43:33;;;;;;;28.40;17.97;;;9.30;99.90;;;;;;5073720;28;20506;-83
2021/12/15 05:46:00;;;;;;;33.63;18.30;;;9.30;99.90;;;;;;5072600;28;20464;-87
2021/12/15 05:48:27;;;;;;;30.90;18.77;;;9.40;99.90;;;;;;5072795;28;21004;-86
2021/12/15 05:50:54;;;;;;;31.80;18.63;;;9.40;99.90;;;;;;5073476;28;20563;-86
2021/12/15 05:53:22;;;;;;;38.87;23.60;;;9.40;99.90;;;;;;5071354;28;20447;-86
2021/12/15 05:55:52;;;;;;;37.27;23.03;;;9.40;99.90;;;;;;5073768;28;20470;-86
2021/12/15 05:58:20;;;;;;;32.73;21.00;;;9.40;99.90;;;;;;5073237;28;20452;-86
2021/12/15 06:00:48;;;;;;;31.53;19.77;;;9.40;99.90;;;;;;5063410;28;20447;-86
2021/12/15 06:03:14;;;;;;;29.53;17.60;;;9.40;99.90;;;;;;5073300;28;20479;-86
2021/12/15 06:05:41;;;;;;;31.43;18.77;;;9.40;99.90;;;;;;5073092;28;20448;-87
2021/12/15 06:08:08;;;;;;;29.67;18.63;;;9.50;99.90;;;;;;5073001;28;20807;-85
2021/12/15 06:10:36;;;;;;;31.03;18.00;;;9.40;99.90;;;;;;5073319;28;20479;-85
2021/12/15 06:13:04;;;;;;;29.03;18.03;;;9.50;99.90;;;;;;5073835;28;20803;-85
2021/12/15 06:15:33;;;;;;;33.27;18.03;;;9.50;99.90;;;;;;5073618;28;20895;-90
2021/12/15 06:18:05;;;;;;;29.80;17.87;;;9.40;99.90;;;;;;5072490;28;20451;-88
2021/12/15 06:20:32;;;;;;;28.40;19.00;;;9.40;99.90;;;;;;5073180;28;20483;-90
2021/12/15 06:23:01;;;;;;;26.50;18.63;;;9.50;99.90;;;;;;5072434;28;20447;-88
2021/12/15 06:25:28;;;;;;;35.03;20.80;;;9.40;99.90;;;;;;5070950;28;20490;-87
2021/12/15 06:27:56;;;;;;;30.90;18.60;;;9.40;99.90;;;;;;5072701;28;20452;-88
2021/12/15 06:30:23;;;;;;;28.03;17.43;;;9.50;99.90;;;;;;5072641;28;20526;-87
2021/12/15 06:32:51;;;;;;;31.10;19.03;;;9.50;99.90;;;;;;5071867;28;20550;-86
2021/12/15 06:35:18;;;;;;;29.23;18.17;;;9.50;99.90;;;;;;5071855;28;20490;-86
2021/12/15 06:37:44;;;;;;;32.13;19.57;;;9.50;99.90;;;;;;5072651;28;20447;-86
2021/12/15 06:40:12;;;;;;;28.57;18.13;;;9.50;99.90;;;;;;5072543;28;20497;-89
2021/12/15 06:42:41;;;;;;;33.27;18.70;;;9.40;99.90;;;;;;5072152;28;20482;-88
2021/12/15 06:45:11;;;;;;;33.87;19.13;;;9.40;99.90;;;;;;5069774;28;20488;-88
2021/12/15 06:58:35;;;;;;;30.10;18.27;;;9.40;99.90;;;;;;5072658;28;20538;-86
2021/12/15 07:01:05;;;;;;;29.80;18.17;;;9.40;99.90;;;;;;5072365;28;20478;-86
2021/12/15 07:03:32;;;;;;;29.07;19.07;;;9.40;99.90;;;;;;5072672;28;20479;-89
2021/12/15 07:06:00;;;;;;;30.60;18.97;;;9.30;99.90;;;;;;5074792;28;20777;-91
2021/12/15 07:08:28;;;;;;;25.73;17.10;;;9.30;99.90;;;;;;5074248;28;20476;-93
2021/12/15 07:10:58;;;;;;;29.97;18.13;;;9.30;99.90;;;;;;5073810;28;20949;-85
2021/12/15 07:13:26;;;;;;;27.40;17.07;;;9.30;99.90;;;;;;5073155;28;20478;-88
2021/12/15 07:15:59;;;;;;;30.30;19.60;;;9.40;99.90;;;;;;5072257;28;20465;-88
2021/12/15 07:18:37;;;;;;;31.37;20.37;;;9.40;99.90;;;;;;5072149;28;20451;-88
2021/12/15 07:21:09;;;;;;;29.00;17.67;;;9.40;99.90;;;;;;5071798;28;20440;-83
2021/12/15 07:23:36;;;;;;;24.67;16.67;;;9.40;99.90;;;;;;5072363;28;20479;-85
2021/12/15 07:26:03;;;;;;;28.87;17.73;;;9.40;99.90;;;;;;5070301;28;20452;-84
2021/12/15 07:28:30;;;;;;;26.37;18.43;;;9.40;99.90;;;;;;5072391;28;20451;-83
2021/12/15 07:30:57;;;;;;;29.03;18.13;;;9.50;99.90;;;;;;5071964;28;20501;-87
2021/12/15 07:33:24;;;;;;;26.30;16.90;;;9.60;99.90;;;;;;5071116;28;21066;-87
2021/12/15 07:35:51;;;;;;;26.10;17.47;;;9.50;99.90;;;;;;5071369;28;20487;-87
2021/12/15 07:38:19;;;;;;;26.30;16.30;;;9.30;99.90;;;;;;5071170;28;20945;-88
2021/12/15 07:40:46;;;;;;;25.70;18.07;;;9.50;99.90;;;;;;5072096;28;20451;-86
2021/12/15 07:43:23;;;;;;;26.50;16.53;;;9.50;99.90;;;;;;5070999;28;20443;-85
2021/12/15 07:45:53;;;;;;;25.37;16.27;;;9.50;99.90;;;;;;5069887;28;20486;-86
2021/12/15 07:48:23;;;;;;;26.73;16.20;;;9.50;99.90;;;;;;5072013;28;20959;-88
2021/12/15 07:50:52;;;;;;;20.90;15.00;;;9.50;99.90;;;;;;5072334;28;20872;-88
2021/12/15 07:53:21;;;;;;;24.77;15.60;;;9.50;99.90;;;;;;5072419;28;20834;-91
2021/12/15 07:55:49;;;;;;;23.67;15.60;;;9.50;99.90;;;;;;5071539;28;20451;-91
2021/12/15 07:58:18;;;;;;;24.03;15.40;;;9.60;99.90;;;;;;5067595;28;20451;-89
2021/12/15 08:00:44;;;;;;;30.20;17.67;;;9.60;99.90;;;;;;5071674;28;20447;-86
2021/12/15 08:03:12;;;;;;;24.07;16.20;;;9.60;99.90;;;;;;5071571;28;20490;-86
2021/12/15 08:05:40;;;;;;;23.97;15.37;;;9.60;99.90;;;;;;5071549;28;20569;-86
2021/12/15 08:08:07;;;;;;;21.97;14.90;;;9.60;99.90;;;;;;5071717;28;20451;-86
2021/12/15 08:10:36;;;;;;;24.13;15.00;;;9.60;99.90;;;;;;5070876;28;20930;-86
2021/12/15 08:13:03;;;;;;;20.37;14.67;;;9.60;99.90;;;;;;5071046;28;20935;-87
2021/12/15 08:15:30;;;;;;;23.53;15.27;;;9.70;99.90;;;;;;5071200;28;20513;-87
2021/12/15 08:17:57;;;;;;;24.97;14.10;;;9.80;99.90;;;;;;5070957;28;20488;-88
2021/12/15 08:20:26;;;;;;;21.67;14.50;;;9.80;99.90;;;;;;5071466;28;20504;-89
2021/12/15 08:22:53;;;;;;;22.20;15.33;;;9.80;99.90;;;;;;5071852;28;20578;-89
2021/12/15 08:25:21;;;;;;;22.93;15.13;;;9.90;99.90;;;;;;5071521;28;20478;-89
2021/12/15 08:27:51;;;;;;;19.20;13.70;;;10.00;99.90;;;;;;5071788;28;20443;-89
2021/12/15 08:30:21;;;;;;;17.73;13.40;;;10.00;99.90;;;;;;5056900;28;20452;-89
2021/12/15 08:32:49;;;;;;;18.60;14.40;;;10.00;99.90;;;;;;5071807;28;20543;-87
2021/12/15 08:35:17;;;;;;;20.13;13.57;;;10.00;99.90;;;;;;5071334;28;20845;-87
2021/12/15 08:37:43;;;;;;;18.77;12.70;;;10.00;99.90;;;;;;5070957;28;20483;-85
2021/12/15 08:40:12;;;;;;;18.37;13.30;;;10.00;99.90;;;;;;5070777;28;20495;-85
2021/12/15 08:42:38;;;;;;;18.73;12.73;;;10.00;99.90;;;;;;5070815;28;20467;-85
2021/12/15 08:45:08;;;;;;;18.63;13.17;;;10.10;99.90;;;;;;5070828;28;20467;-86
2021/12/15 08:47:36;;;;;;;15.83;12.77;;;10.10;99.90;;;;;;5070601;28;20515;-92
2021/12/15 08:50:06;;;;;;;16.60;13.20;;;10.10;99.90;;;;;;5071082;28;20543;-81
2021/12/15 08:52:33;;;;;;;17.57;12.07;;;10.20;99.90;;;;;;5070168;28;20519;-80
2021/12/15 08:55:00;;;;;;;16.10;12.80;;;10.20;99.90;;;;;;5070135;28;20448;-81
2021/12/15 08:57:27;;;;;;;15.93;12.13;;;10.20;99.90;;;;;;5070323;28;20888;-80
2021/12/15 08:59:53;;;;;;;18.57;14.33;;;10.20;99.90;;;;;;5070035;28;20451;-81
2021/12/15 09:02:21;;;;;;;15.37;12.20;;;10.30;99.90;;;;;;5070313;28;20479;-80
2021/12/15 09:04:48;;;;;;;16.30;11.80;;;10.30;99.90;;;;;;5069979;28;20989;-80
2021/12/15 09:07:15;;;;;;;18.00;12.93;;;10.20;99.90;;;;;;5069839;28;20486;-80
2021/12/15 09:09:41;;;;;;;19.23;12.00;;;10.30;99.90;;;;;;5068299;28;20483;-81
2021/12/15 09:12:09;;;;;;;14.97;12.43;;;10.30;99.90;;;;;;5070031;28;20866;-81
2021/12/15 09:14:36;;;;;;;17.50;13.30;;;10.30;99.90;;;;;;5070138;28;20502;-81
2021/12/15 09:17:04;;;;;;;15.77;13.17;;;10.30;99.90;;;;;;5069992;28;20487;-81
2021/12/15 09:19:32;;;;;;;17.87;14.00;;;10.30;99.90;;;;;;5070226;28;20455;-81
2021/12/15 09:21:59;;;;;;;19.40;14.20;;;10.40;99.90;;;;;;5069737;28;20443;-81
2021/12/15 09:24:26;;;;;;;20.03;14.07;;;10.30;99.90;;;;;;5073711;28;20479;-81
2021/12/15 09:26:53;;;;;;;18.37;12.70;;;10.30;99.90;;;;;;5073597;28;20965;-81
2021/12/15 09:29:20;;;;;;;19.93;13.90;;;10.40;99.90;;;;;;5074214;28;20463;-81
2021/12/15 09:31:47;;;;;;;15.87;13.10;;;10.40;99.90;;;;;;5074476;28;20872;-82
2021/12/15 09:34:17;;;;;;;15.77;12.57;;;10.50;99.90;;;;;;5060126;28;21165;-81
2021/12/15 09:36:46;;;;;;;17.27;12.27;;;10.60;99.90;;;;;;5074768;28;20447;-81
2021/12/15 09:39:15;;;;;;;16.83;12.80;;;10.60;99.90;;;;;;5074415;28;20471;-81
2021/12/15 09:41:43;;;;;;;16.47;12.97;;;10.60;99.90;;;;;;5074415;28;20474;-81
2021/12/15 09:44:13;;;;;;;16.10;13.00;;;10.60;99.90;;;;;;5074298;28;20440;-81
2021/12/15 09:47:07;;;;;;;17.37;13.90;;;10.70;99.90;;;;;;5074741;28;20480;-81
2021/12/15 10:03:29;;;;;;;16.80;12.40;;;10.60;99.90;;;;;;5074111;28;20442;-82
2021/12/15 10:06:05;;;;;;;15.10;12.30;;;10.60;99.90;;;;;;5073700;28;21013;-82
2021/12/15 10:11:45;;;;;;;15.70;12.10;;;10.60;99.90;;;;;;5073897;28;20819;-82
2021/12/15 10:20:05;;;;;;;16.60;13.17;;;10.60;99.90;;;;;;5012516;28;20465;-82
2021/12/15 10:22:38;;;;;;;16.73;13.80;;;10.60;99.90;;;;;;5054524;28;20538;-83
2021/12/15 10:25:11;;;;;;;20.23;14.17;;;10.60;99.90;;;;;;5073234;28;20533;-83
2021/12/15 10:27:43;;;;;;;17.80;13.70;;;10.60;99.90;;;;;;5073804;28;20471;-83
2021/12/15 10:30:22;;;;;;;17.83;12.90;;;10.70;99.90;;;;;;5074221;28;20475;-86
2021/12/15 10:32:54;;;;;;;14.53;11.57;;;10.60;99.90;;;;;;5073883;28;20530;-86
2021/12/15 10:35:24;;;;;;;17.10;12.97;;;10.60;99.90;;;;;;5073468;28;20472;-86
2021/12/15 10:38:17;;;;;;;17.17;12.87;;;10.70;99.90;;;;;;5073941;28;20519;-86
2021/12/15 10:40:51;;;;;;;18.53;14.20;;;10.70;99.90;;;;;;5073396;28;20964;-86
2021/12/15 10:43:18;;;;;;;18.70;13.17;;;10.80;99.90;;;;;;5067741;28;20875;-88
2021/12/15 10:45:48;;;;;;;16.67;12.63;;;10.80;99.90;;;;;;5073858;28;20511;-87
2021/12/15 10:48:37;;;;;;;17.63;14.13;;;10.80;99.90;;;;;;5143665;27;20577;-88
2021/12/15 10:51:19;;;;;;;16.07;12.50;;;10.80;99.90;;;;;;5135714;27;20480;-88
2021/12/15 10:53:46;;;;;;;15.80;12.57;;;10.70;99.90;;;;;;5139836;27;20567;-92
2021/12/15 10:56:18;;;;;;;16.23;12.90;;;10.70;99.90;;;;;;5143675;27;20529;-88
2021/12/15 10:58:47;;;;;;;17.57;12.40;;;10.80;99.90;;;;;;5131906;27;20891;-87
2021/12/15 11:01:44;;;;;;;17.37;13.47;;;10.70;99.90;;;;;;5131602;27;20908;-88
2021/12/15 11:04:29;;;;;;;16.77;12.63;;;10.60;99.90;;;;;;5133473;27;20524;-87
2021/12/15 11:07:13;;;;;;;17.17;14.00;;;10.60;99.90;;;;;;5129933;27;20502;-87
2021/12/15 11:09:42;;;;;;;16.03;12.47;;;10.60;99.90;;;;;;5131082;27;20473;-87
2021/12/15 11:12:15;;;;;;;14.43;11.07;;;10.50;99.90;;;;;;5133013;27;20479;-87
2021/12/15 11:14:45;;;;;;;18.27;11.90;;;10.50;99.90;;;;;;5131484;27;20520;-88
2021/12/15 11:17:15;;;;;;;15.40;12.40;;;10.50;99.90;;;;;;5131514;27;20491;-87
2021/12/15 11:19:53;;;;;;;17.37;13.97;;;10.60;99.90;;;;;;5131597;27;20448;-87
2021/12/15 11:22:43;;;;;;;16.57;13.07;;;10.60;99.90;;;;;;5130533;27;20500;-88
2021/12/15 11:25:13;;;;;;;15.33;11.90;;;10.60;99.90;;;;;;5128793;27;20475;-87
2021/12/15 11:27:41;;;;;;;16.23;12.53;;;10.70;99.90;;;;;;5131551;27;20624;-87
2021/12/15 11:30:12;;;;;;;18.20;12.33;;;10.80;99.90;;;;;;5132780;27;20490;-87
2021/12/15 11:32:43;;;;;;;20.00;11.97;;;10.70;99.90;;;;;;5131051;27;20473;-87
2021/12/15 11:35:17;;;;;;;14.97;11.97;;;10.70;99.90;;;;;;5129032;27;20441;-87
2021/12/15 11:37:52;;;;;;;16.00;12.50;;;10.80;99.90;;;;;;5145315;27;20504;-86
2021/12/15 11:40:27;;;;;;;14.30;11.40;;;10.80;99.90;;;;;;5116960;27;20436;-87
2021/12/15 11:42:53;;;;;;;14.87;11.07;;;10.80;99.90;;;;;;5133238;27;20486;-88
2021/12/15 11:45:20;;;;;;;14.87;12.00;;;10.90;99.90;;;;;;5143030;27;20509;-86
2021/12/15 11:47:47;;;;;;;12.67;9.83;;;10.90;99.90;;;;;;5132989;27;20513;-89
2021/12/15 11:50:19;;;;;;;13.93;11.83;;;11.00;99.90;;;;;;5132257;27;20808;-88
2021/12/15 11:52:50;;;;;;;14.77;11.73;;;11.00;99.90;;;;;;5122609;27;20478;-87
2021/12/15 11:55:25;;;;;;;14.80;12.70;;;11.10;99.90;;;;;;5142664;27;20482;-88
2021/12/15 11:57:52;;;;;;;12.30;10.63;;;11.10;99.90;;;;;;5130053;27;21013;-84
2021/12/15 12:00:22;;;;;;;15.67;12.33;;;11.20;99.90;;;;;;5131485;27;20495;-85
2021/12/15 12:02:53;;;;;;;12.03;10.80;;;11.30;99.90;;;;;;5124400;27;20472;-85
2021/12/15 12:05:24;;;;;;;14.10;11.07;;;11.30;99.90;;;;;;5122779;27;20445;-86
2021/12/15 12:07:54;;;;;;;13.83;11.47;;;11.40;99.90;;;;;;5131792;27;20533;-85
2021/12/15 12:10:25;;;;;;;14.90;10.57;;;11.40;99.90;;;;;;5120714;27;20488;-85
2021/12/15 12:13:02;;;;;;;13.43;10.53;;;11.50;99.90;;;;;;5126761;27;20471;-84
2021/12/15 12:15:33;;;;;;;11.47;10.27;;;11.50;99.90;;;;;;5115047;27;20437;-86
2021/12/15 12:18:04;;;;;;;12.73;11.30;;;11.50;99.90;;;;;;5131866;27;20522;-91
2021/12/15 12:20:38;;;;;;;12.60;11.10;;;11.60;99.90;;;;;;5121442;27;20908;-82
2021/12/15 12:23:07;;;;;;;11.77;10.50;;;11.60;99.90;;;;;;5125591;27;20444;-87
2021/12/15 12:25:37;;;;;;;12.10;9.83;;;11.60;99.90;;;;;;5115555;27;20445;-87
2021/12/15 12:28:07;;;;;;;10.50;8.50;;;11.60;99.90;;;;;;5126753;27;20473;-87
2021/12/15 12:30:37;;;;;;;12.53;9.87;;;11.60;99.90;;;;;;5133441;27;20509;-87
2021/12/15 12:33:08;;;;;;;10.93;8.67;;;11.70;99.90;;;;;;5123154;27;20495;-87
2021/12/15 12:35:40;;;;;;;14.10;9.60;;;11.70;99.90;;;;;;5123608;27;20437;-87
2021/12/15 12:38:11;;;;;;;9.50;8.40;;;11.70;99.90;;;;;;5119798;27;20450;-87
2021/12/15 12:40:51;;;;;;;9.80;8.20;;;11.70;99.90;;;;;;5119331;27;20477;-87
2021/12/15 12:43:21;;;;;;;11.13;9.03;;;11.80;99.90;;;;;;5127198;27;20960;-87
2021/12/15 12:46:20;;;;;;;11.23;8.30;;;11.80;99.90;;;;;;5132176;27;20497;-87
2021/12/15 12:49:23;;;;;;;10.83;8.93;;;11.80;99.90;;;;;;5106036;27;20473;-86
2021/12/15 13:00:35;;;;;;;8.27;7.47;;;11.60;99.90;;;;;;5126964;27;20448;-87
2021/12/15 13:03:06;;;;;;;8.53;7.63;;;11.50;99.90;;;;;;5123482;27;20469;-87
2021/12/15 13:05:38;;;;;;;7.73;6.83;;;11.50;99.90;;;;;;5125971;27;20449;-82
2021/12/15 13:08:10;;;;;;;8.43;7.53;;;11.50;99.90;;;;;;5122992;27;20475;-83
2021/12/15 13:11:03;;;;;;;8.40;7.13;;;11.40;99.90;;;;;;5121044;27;20496;-82
2021/12/15 13:13:32;;;;;;;7.80;7.00;;;11.40;99.90;;;;;;5117024;27;20477;-85
2021/12/15 13:16:01;;;;;;;10.97;7.93;;;11.40;99.90;;;;;;5124818;27;20473;-85
2021/12/15 13:18:42;;;;;;;9.97;8.93;;;11.30;99.90;;;;;;5127508;27;20909;-85
2021/12/15 13:21:11;;;;;;;8.10;7.27;;;11.30;99.90;;;;;;5124576;27;20524;-85
2021/12/15 13:23:48;;;;;;;9.10;8.20;;;11.30;99.90;;;;;;5123065;27;20794;-86
2021/12/15 13:29:28;;;;;;;10.13;7.90;;;11.30;99.90;;;;;;5112582;27;20480;-87
2021/12/15 13:31:59;;;;;;;8.67;7.77;;;11.30;99.90;;;;;;5123070;27;20855;-86
2021/12/15 13:34:38;;;;;;;8.57;7.70;;;11.30;99.90;;;;;;5121031;27;20533;-86
2021/12/15 13:37:06;;;;;;;9.90;7.60;;;11.30;99.90;;;;;;5123029;27;20481;-87
2021/12/15 13:39:47;;;;;;;7.83;6.93;;;11.20;99.90;;;;;;5125066;27;20468;-87
2021/12/15 13:42:35;;;;;;;9.40;7.30;;;11.20;99.90;;;;;;5125883;27;20523;-87
2021/12/15 13:45:01;;;;;;;11.37;8.13;;;11.10;99.90;;;;;;5121708;27;20497;-86
2021/12/15 13:47:28;;;;;;;11.70;8.33;;;11.10;99.90;;;;;;5124951;27;20488;-84
2021/12/15 13:49:57;;;;;;;9.47;8.07;;;11.00;99.90;;;;;;5123840;27;20449;-89
2021/12/15 13:52:34;;;;;;;10.83;8.47;;;11.00;99.90;;;;;;5121788;27;20430;-86
2021/12/15 13:55:21;;;;;;;9.63;7.87;;;11.10;99.90;;;;;;5122069;27;20442;-86
2021/12/15 13:58:04;;;;;;;9.67;8.47;;;11.10;99.90;;;;;;5113253;27;20442;-85
2021/12/15 14:00:35;;;;;;;10.80;7.70;;;11.10;99.90;;;;;;5119270;27;20924;-85